createdAt,value
2017-09-23T09:44:03.358Z,962.42
2017-09-23T09:45:03.335Z,962.38
2017-09-23T09:46:56.710Z,962.40
2017-09-23T09:47:56.745Z,962.39
2017-09-23T09:49:51.158Z,962.36
2017-09-23T09:50:51.178Z,962.38
2017-09-23T09:52:44.560Z,962.40
2017-09-23T09:53:44.578Z,962.39
2017-09-23T09:55:37.987Z,962.40
2017-09-23T09:56:38.000Z,962.37
2017-09-23T09:58:31.508Z,962.39
2017-09-23T09:59:31.463Z,962.35
2017-09-23T10:01:32.999Z,962.36
2017-09-23T10:02:25.187Z,962.33
2017-09-23T10:04:18.275Z,962.32
2017-09-23T10:05:18.342Z,962.31
2017-09-23T10:07:12.652Z,962.28
2017-09-23T10:08:12.720Z,962.30
2017-09-23T10:10:06.126Z,962.25
2017-09-23T10:11:06.071Z,962.28
2017-09-23T10:13:00.600Z,962.25
2017-09-23T10:14:00.506Z,962.28
2017-09-23T10:15:54.986Z,962.30
2017-09-23T10:16:54.895Z,962.31
2017-09-23T10:18:48.424Z,962.36
2017-09-23T10:19:48.363Z,962.27
2017-09-23T10:21:41.797Z,962.26
2017-09-23T10:22:43.009Z,962.32
2017-09-23T10:24:36.386Z,962.35
2017-09-23T10:25:36.215Z,962.31
2017-09-23T10:27:29.630Z,962.25
2017-09-23T10:28:29.647Z,962.29
2017-09-23T10:30:24.104Z,962.25
2017-09-23T10:31:24.048Z,962.29
2017-09-23T10:33:17.504Z,962.24
2017-09-23T10:34:17.595Z,962.29
2017-09-23T10:36:10.989Z,962.30
2017-09-23T10:37:11.103Z,962.31
2017-09-23T10:39:04.316Z,962.30
2017-09-23T10:40:04.341Z,962.37
2017-09-23T10:41:57.811Z,962.45
2017-09-23T10:42:57.791Z,962.45
2017-09-23T10:44:52.311Z,962.36
2017-09-23T10:45:52.213Z,962.38
2017-09-23T10:47:45.664Z,962.48
2017-09-23T10:48:45.645Z,962.45
2017-09-23T10:50:39.057Z,962.49
2017-09-23T10:51:39.086Z,962.22
2017-09-23T10:53:32.545Z,962.45
2017-09-23T10:54:32.797Z,962.41
2017-09-23T10:56:25.914Z,962.46
2017-09-23T10:57:25.960Z,962.49
2017-09-23T10:59:20.397Z,962.48
2017-09-23T11:00:20.382Z,962.43
2017-09-23T11:02:13.869Z,962.38
2017-09-23T11:03:13.840Z,962.36
2017-09-23T11:05:08.299Z,962.29
2017-09-23T11:06:08.276Z,962.29
2017-09-23T11:08:02.669Z,962.29
2017-09-23T11:09:02.717Z,962.25
2017-09-23T11:10:56.141Z,962.26
2017-09-23T11:11:56.176Z,962.28
2017-09-23T11:13:49.600Z,962.31
2017-09-23T11:14:49.589Z,962.28
2017-09-23T11:16:43.029Z,962.22
2017-09-23T11:17:43.017Z,962.26
2017-09-23T11:19:36.439Z,962.20
2017-09-23T11:20:36.487Z,962.22
2017-09-23T11:22:29.895Z,962.16
2017-09-23T11:23:29.883Z,962.08
2017-09-23T11:25:23.301Z,962.13
2017-09-23T11:26:23.321Z,962.06
2017-09-23T11:28:16.782Z,962.02
2017-09-23T11:29:16.775Z,961.97
2017-09-23T11:31:10.174Z,961.65
2017-09-23T11:32:10.191Z,961.64
2017-09-23T11:34:03.653Z,961.67
2017-09-23T11:35:03.627Z,961.70
2017-09-23T11:36:57.302Z,961.76
2017-09-23T11:37:57.342Z,961.87
2017-09-23T11:39:50.763Z,961.87
2017-09-23T11:40:50.743Z,961.85
2017-09-23T11:42:44.191Z,961.86
2017-09-23T11:43:44.272Z,961.87
2017-09-23T11:45:37.739Z,961.90
2017-09-23T11:46:37.560Z,961.85
2017-09-23T11:49:30.843Z,961.75
2017-09-23T11:51:24.548Z,961.64
2017-09-23T11:54:17.930Z,961.53
2017-09-23T11:55:17.945Z,961.53
2017-09-23T11:57:11.432Z,961.49
2017-09-23T11:58:11.407Z,961.47
2017-09-23T12:00:05.013Z,961.45
2017-09-23T12:01:04.880Z,961.44
2017-09-23T12:02:59.128Z,961.52
2017-09-23T12:03:59.121Z,961.53
2017-09-23T12:05:52.523Z,961.54
2017-09-23T12:06:52.553Z,961.54
2017-09-23T12:08:45.974Z,961.56
2017-09-23T12:09:45.964Z,961.58
2017-09-23T12:11:39.475Z,961.57
2017-09-23T12:12:39.384Z,961.52
2017-09-23T12:14:32.881Z,961.55
2017-09-23T12:15:32.895Z,961.47
2017-09-23T12:17:26.305Z,961.56
2017-09-23T12:18:26.327Z,961.58
2017-09-23T12:20:20.746Z,961.69
2017-09-23T12:21:21.457Z,961.69
2017-09-23T12:23:14.116Z,961.65
2017-09-23T12:24:14.129Z,961.70
2017-09-23T12:26:07.906Z,961.67
2017-09-23T12:29:01.020Z,961.70
2017-09-23T12:30:01.053Z,961.70
2017-09-23T12:31:54.881Z,961.69
2017-09-23T12:32:54.715Z,961.71
2017-09-23T12:34:47.872Z,961.82
2017-09-23T12:35:47.885Z,961.68
2017-09-23T12:37:41.380Z,961.81
2017-09-23T12:38:41.324Z,961.71
2017-09-23T12:40:34.995Z,961.43
2017-09-23T12:41:35.022Z,961.45
2017-09-23T12:43:29.489Z,961.69
2017-09-23T12:44:29.581Z,961.84
2017-09-23T12:46:22.911Z,961.79
2017-09-23T12:47:22.939Z,961.73
2017-09-23T12:49:16.354Z,961.77
2017-09-23T12:50:16.365Z,961.68
2017-09-23T12:52:09.745Z,961.63
2017-09-23T12:53:09.813Z,961.56
2017-09-23T12:55:05.486Z,961.51
2017-09-23T12:56:05.377Z,961.49
2017-09-23T12:58:08.181Z,961.44
2017-09-23T12:59:07.198Z,961.33
2017-09-23T13:00:52.900Z,961.27
2017-09-23T13:01:52.892Z,961.27
2017-09-23T13:03:46.449Z,961.23
2017-09-23T13:04:46.355Z,961.23
2017-09-23T13:06:39.801Z,961.17
2017-09-23T13:07:39.715Z,961.14
2017-09-23T13:09:33.283Z,961.09
2017-09-23T13:10:33.173Z,961.07
2017-09-23T13:12:26.706Z,961.06
2017-09-23T13:13:26.607Z,961.12
2017-09-23T13:15:20.028Z,961.13
2017-09-23T13:16:28.899Z,961.13
2017-09-23T13:18:14.765Z,961.13
2017-09-23T13:19:14.928Z,961.10
2017-09-23T13:21:08.024Z,961.05
2017-09-23T13:22:08.111Z,961.08
2017-09-23T13:24:11.268Z,961.10
2017-09-23T13:25:02.569Z,961.11
2017-09-23T13:26:56.959Z,961.09
2017-09-23T13:27:56.901Z,961.11
2017-09-23T13:29:52.421Z,961.08
2017-09-23T13:31:01.089Z,961.06
2017-09-23T13:32:46.737Z,961.08
2017-09-23T13:33:46.856Z,961.02
2017-09-23T13:35:40.399Z,961.02
2017-09-23T13:36:47.850Z,961.01
2017-09-23T13:38:33.459Z,960.95
2017-09-23T13:39:33.624Z,960.93
2017-09-23T13:41:37.822Z,960.97
2017-09-23T13:42:36.838Z,960.95
2017-09-23T13:44:21.632Z,960.99
2017-09-23T13:45:28.946Z,961.05
2017-09-23T13:47:14.792Z,960.98
2017-09-23T13:48:14.792Z,961.01
2017-09-23T13:50:09.227Z,960.95
2017-09-23T13:51:09.349Z,960.96
2017-09-23T13:53:03.666Z,960.89
2017-09-23T13:54:03.636Z,960.84
2017-09-23T13:55:57.020Z,960.82
2017-09-23T13:56:57.159Z,960.79
2017-09-23T13:58:50.646Z,960.77
2017-09-23T13:59:50.481Z,960.76
2017-09-23T14:01:44.823Z,960.75
2017-09-23T14:02:44.872Z,960.70
2017-09-23T14:04:48.985Z,960.66
2017-09-23T14:05:40.272Z,960.73
2017-09-23T14:07:33.850Z,960.65
2017-09-23T14:08:33.799Z,960.63
2017-09-23T14:10:27.316Z,960.64
2017-09-23T14:11:27.209Z,960.62
2017-09-23T14:13:28.271Z,960.63
2017-09-23T14:14:20.638Z,960.61
2017-09-23T14:16:15.110Z,960.53
2017-09-23T14:17:15.091Z,960.52
2017-09-23T14:19:09.409Z,960.48
2017-09-23T14:20:09.494Z,960.51
2017-09-23T14:22:02.898Z,960.50
2017-09-23T14:23:02.858Z,960.47
2017-09-23T14:24:56.258Z,960.44
2017-09-23T14:25:56.296Z,960.43
2017-09-23T14:27:49.842Z,960.59
2017-09-23T14:28:49.804Z,960.63
2017-09-23T14:30:43.232Z,960.75
2017-09-23T14:31:43.102Z,960.71
2017-09-23T14:33:36.530Z,960.72
2017-09-23T14:34:36.491Z,960.79
2017-09-23T14:36:29.912Z,960.81
2017-09-23T14:37:29.874Z,960.57
2017-09-23T14:39:23.372Z,960.40
2017-09-23T14:40:23.374Z,960.40
2017-09-23T14:42:16.762Z,960.43
2017-09-23T14:43:16.796Z,960.50
2017-09-23T14:45:11.261Z,960.40
2017-09-23T14:46:11.217Z,960.45
2017-09-23T14:48:04.610Z,960.39
2017-09-23T14:49:04.996Z,960.40
2017-09-23T14:50:58.208Z,960.32
2017-09-23T14:51:58.071Z,960.35
2017-09-23T14:53:51.474Z,960.34
2017-09-23T14:54:51.463Z,960.37
2017-09-23T14:56:44.916Z,960.31
2017-09-23T14:57:44.936Z,960.35
2017-09-23T14:59:38.308Z,960.31
2017-09-23T15:00:38.321Z,960.34
2017-09-23T15:02:31.763Z,960.31
2017-09-23T15:03:31.951Z,960.26
2017-09-23T15:05:25.127Z,960.31
2017-09-23T15:06:25.154Z,960.29
2017-09-23T15:08:18.606Z,960.33
2017-09-23T15:09:18.570Z,960.38
2017-09-23T15:11:11.966Z,960.38
2017-09-23T15:12:12.003Z,960.38
2017-09-23T15:14:05.433Z,960.40
2017-09-23T15:15:05.426Z,960.45
2017-09-23T15:16:58.806Z,960.42
2017-09-23T15:17:58.816Z,960.43
2017-09-23T15:19:53.275Z,960.44
2017-09-23T15:20:53.235Z,960.42
2017-09-23T15:22:46.646Z,960.47
2017-09-23T15:23:46.683Z,960.47
2017-09-23T15:25:40.096Z,960.47
2017-09-23T15:26:40.146Z,960.46
2017-09-23T15:28:33.469Z,960.47
2017-09-23T15:29:33.474Z,960.51
2017-09-23T15:31:27.009Z,960.49
2017-09-23T15:32:26.919Z,960.50
2017-09-23T15:34:20.318Z,960.44
2017-09-23T15:35:20.316Z,960.47
2017-09-23T15:37:13.783Z,960.45
2017-09-23T15:38:13.769Z,960.43
2017-09-23T15:40:07.160Z,960.42
2017-09-23T15:41:07.171Z,960.42
2017-09-23T15:43:00.721Z,960.40
2017-09-23T15:44:00.609Z,960.40
2017-09-23T15:45:53.978Z,960.39
2017-09-23T15:46:54.030Z,960.41
2017-09-23T15:48:47.464Z,960.38
2017-09-23T15:49:47.432Z,960.37
2017-09-23T15:51:40.829Z,960.35
2017-09-23T15:52:40.842Z,960.37
2017-09-23T15:54:34.286Z,960.35
2017-09-23T15:55:34.258Z,960.35
2017-09-23T15:57:27.661Z,960.33
2017-09-23T15:58:27.666Z,960.35
2017-09-23T16:00:21.133Z,960.36
2017-09-23T16:01:21.076Z,960.34
2017-09-23T16:03:14.508Z,960.33
2017-09-23T16:04:14.504Z,960.32
2017-09-23T16:06:07.980Z,960.31
2017-09-23T16:07:07.921Z,960.34
2017-09-23T16:09:16.825Z,960.41
2017-09-23T16:10:16.838Z,960.40
2017-09-23T16:12:10.318Z,960.39
2017-09-23T16:13:10.352Z,960.38
2017-09-23T16:15:04.712Z,960.39
2017-09-23T16:16:04.754Z,960.39
2017-09-23T16:17:59.175Z,960.41
2017-09-23T16:18:59.161Z,960.39
2017-09-23T16:20:53.603Z,960.42
2017-09-23T16:21:53.606Z,960.44
2017-09-23T16:23:47.037Z,960.44
2017-09-23T16:24:46.999Z,960.43
2017-09-23T16:26:40.415Z,960.50
2017-09-23T16:27:40.441Z,960.47
2017-09-23T16:29:33.868Z,960.53
2017-09-23T16:30:33.874Z,960.51
2017-09-23T16:32:28.245Z,960.52
2017-09-23T16:33:28.272Z,960.49
2017-09-23T16:35:21.700Z,960.50
2017-09-23T16:36:22.609Z,960.49
2017-09-23T16:38:15.093Z,960.49
2017-09-23T16:39:15.139Z,960.49
2017-09-23T16:41:08.643Z,960.53
2017-09-23T16:42:08.539Z,960.52
2017-09-23T16:44:01.933Z,960.51
2017-09-23T16:45:04.629Z,960.49
2017-09-23T16:46:56.431Z,960.49
2017-09-23T16:47:56.372Z,960.48
2017-09-23T16:49:51.349Z,960.52
2017-09-23T16:50:49.846Z,960.51
2017-09-23T16:52:43.233Z,960.54
2017-09-23T16:53:44.435Z,960.51
2017-09-23T16:55:36.680Z,960.49
2017-09-23T16:56:36.731Z,960.48
2017-09-23T16:58:30.992Z,960.53
2017-09-23T16:59:31.664Z,960.55
2017-09-23T17:01:24.392Z,960.54
2017-09-23T17:02:24.340Z,960.54
2017-09-23T17:04:21.802Z,960.54
2017-09-23T17:05:21.780Z,960.57
2017-09-23T17:07:15.145Z,960.53
2017-09-23T17:08:15.156Z,960.52
2017-09-23T17:10:08.646Z,960.55
2017-09-23T17:11:08.615Z,960.56
2017-09-23T17:13:02.026Z,960.59
2017-09-23T17:14:02.018Z,960.53
2017-09-23T17:15:55.450Z,960.59
2017-09-23T17:16:55.442Z,960.60
2017-09-23T17:18:50.440Z,960.62
2017-09-23T17:19:48.844Z,960.62
2017-09-23T17:21:42.282Z,960.59
2017-09-23T17:22:42.269Z,960.58
2017-09-23T17:24:35.709Z,960.62
2017-09-23T17:25:35.663Z,960.64
2017-09-23T17:27:29.111Z,960.67
2017-09-23T17:28:29.122Z,960.70
2017-09-23T17:30:22.627Z,960.69
2017-09-23T17:31:22.555Z,960.70
2017-09-23T17:33:15.924Z,960.72
2017-09-23T17:34:15.953Z,960.71
2017-09-23T17:36:10.344Z,960.72
2017-09-23T17:37:10.418Z,960.70
2017-09-23T17:39:03.807Z,960.73
2017-09-23T17:40:03.801Z,960.72
2017-09-23T17:41:57.282Z,960.72
2017-09-23T17:42:57.235Z,960.73
2017-09-23T17:44:50.670Z,960.70
2017-09-23T17:45:50.669Z,960.65
2017-09-23T17:47:44.039Z,960.67
2017-09-23T17:48:44.071Z,960.64
2017-09-23T17:50:38.529Z,960.61
2017-09-23T17:51:38.473Z,960.64
2017-09-23T17:53:32.878Z,960.67
2017-09-23T17:54:32.861Z,960.66
2017-09-23T17:56:26.340Z,960.63
2017-09-23T17:57:26.264Z,960.67
2017-09-23T17:59:19.693Z,960.66
2017-09-23T18:00:19.757Z,960.65
2017-09-23T18:02:13.191Z,960.60
2017-09-23T18:03:13.161Z,960.63
2017-09-23T18:05:06.576Z,960.62
2017-09-23T18:06:06.539Z,960.59
2017-09-23T18:08:01.004Z,960.60
2017-09-23T18:09:01.017Z,960.59
2017-09-23T18:10:55.386Z,960.59
2017-09-23T18:11:55.379Z,960.55
2017-09-23T18:13:48.788Z,960.53
2017-09-23T18:14:48.780Z,960.57
2017-09-23T18:16:42.194Z,960.56
2017-09-23T18:17:42.222Z,960.60
2017-09-23T18:19:35.648Z,960.64
2017-09-23T18:20:35.593Z,960.65
2017-09-23T18:22:29.038Z,960.66
2017-09-23T18:23:29.088Z,960.67
2017-09-23T18:25:22.496Z,960.74
2017-09-23T18:26:22.484Z,960.75
2017-09-23T18:28:15.899Z,960.76
2017-09-23T18:29:15.873Z,960.77
2017-09-23T18:31:10.521Z,960.75
2017-09-23T18:32:19.011Z,960.80
2017-09-23T18:34:03.833Z,960.77
2017-09-23T18:35:03.758Z,960.75
2017-09-23T18:36:58.203Z,960.76
2017-09-23T18:37:58.123Z,960.75
2017-09-23T18:39:52.549Z,960.80
2017-09-23T18:40:52.585Z,960.84
2017-09-23T18:42:45.982Z,960.83
2017-09-23T18:45:28.282Z,960.85
2017-09-23T18:46:28.520Z,960.83
2017-09-23T18:48:24.981Z,960.84
2017-09-23T18:49:22.231Z,960.75
2017-09-23T18:51:09.075Z,960.78
2017-09-23T18:52:09.221Z,960.76
2017-09-23T18:54:13.443Z,960.76
2017-09-23T18:55:04.609Z,960.73
2017-09-23T18:56:59.086Z,960.77
2017-09-23T18:57:58.966Z,960.73
2017-09-23T18:59:52.394Z,960.71
2017-09-23T19:00:52.592Z,960.74
2017-09-23T19:02:47.086Z,960.73
2017-09-23T19:03:46.993Z,960.73
2017-09-23T19:05:42.568Z,960.74
2017-09-23T19:06:42.325Z,960.73
2017-09-23T19:08:36.530Z,960.71
2017-09-23T19:09:36.593Z,960.71
2017-09-23T19:11:30.016Z,960.74
2017-09-23T19:12:30.094Z,960.74
2017-09-23T19:14:31.005Z,960.74
2017-09-23T19:15:23.404Z,960.77
2017-09-23T19:17:16.865Z,960.74
2017-09-23T19:18:16.809Z,960.75
2017-09-23T19:20:10.198Z,960.74
2017-09-23T19:21:10.196Z,960.77
2017-09-23T19:23:03.617Z,960.79
2017-09-23T19:24:03.586Z,960.79
2017-09-23T19:25:56.995Z,960.83
2017-09-23T19:26:57.006Z,960.86
2017-09-23T19:28:50.471Z,960.85
2017-09-23T19:29:50.472Z,960.85
2017-09-23T19:31:44.835Z,960.81
2017-09-23T19:32:44.813Z,960.79
2017-09-23T19:34:38.247Z,960.76
2017-09-23T19:35:38.236Z,960.79
2017-09-23T19:37:31.666Z,960.80
2017-09-23T19:38:31.660Z,960.77
2017-09-23T19:40:25.122Z,960.83
2017-09-23T19:41:25.174Z,960.80
2017-09-23T19:43:18.493Z,960.80
2017-09-23T19:44:18.694Z,960.82
2017-09-23T19:46:11.914Z,960.84
2017-09-23T19:47:11.884Z,960.81
2017-09-23T19:49:05.405Z,960.78
2017-09-23T19:50:05.330Z,960.75
2017-09-23T19:51:58.985Z,960.71
2017-09-23T19:52:58.732Z,960.72
2017-09-23T19:54:52.157Z,960.71
2017-09-23T19:55:52.149Z,960.70
2017-09-23T19:57:46.592Z,960.70
2017-09-23T19:58:46.569Z,960.70
2017-09-23T20:00:39.976Z,960.74
2017-09-23T20:01:39.996Z,960.75
2017-09-23T20:03:33.446Z,960.73
2017-09-23T20:04:33.410Z,960.77
2017-09-23T20:06:26.812Z,960.80
2017-09-23T20:07:26.840Z,960.79
2017-09-23T20:09:20.241Z,960.72
2017-09-23T20:10:20.235Z,960.75
2017-09-23T20:12:13.700Z,960.80
2017-09-23T20:13:13.684Z,960.76
2017-09-23T20:15:08.130Z,960.77
2017-09-23T20:16:08.123Z,960.79
2017-09-23T20:18:02.483Z,960.79
2017-09-23T20:19:02.500Z,960.78
2017-09-23T20:20:55.745Z,960.77
2017-09-23T20:21:55.730Z,960.78
2017-09-23T20:23:49.101Z,960.76
2017-09-23T20:24:49.132Z,960.74
2017-09-23T20:26:42.551Z,960.71
2017-09-23T20:27:42.543Z,960.63
2017-09-23T20:29:36.231Z,960.62
2017-09-23T20:30:36.254Z,960.63
2017-09-23T20:32:32.642Z,960.62
2017-09-23T20:33:32.745Z,960.60
2017-09-23T20:35:25.178Z,960.65
2017-09-23T20:36:25.238Z,960.67
2017-09-23T20:38:19.620Z,960.66
2017-09-23T20:39:19.593Z,960.64
2017-09-23T20:41:15.794Z,960.65
2017-09-23T20:42:13.249Z,960.62
2017-09-23T20:44:06.764Z,960.64
2017-09-23T20:45:06.651Z,960.62
2017-09-23T20:47:00.731Z,960.64
2017-09-23T20:48:01.999Z,960.63
2017-09-23T20:49:55.955Z,960.61
2017-09-23T20:50:56.222Z,960.64
2017-09-23T20:52:49.132Z,960.59
2017-09-23T20:53:49.118Z,960.60
2017-09-23T20:55:42.533Z,960.61
2017-09-23T20:56:42.485Z,960.59
2017-09-23T20:58:35.950Z,960.61
2017-09-23T20:59:35.899Z,960.63
2017-09-23T21:01:30.309Z,960.62
2017-09-23T21:02:30.337Z,960.61
2017-09-23T21:04:23.728Z,960.60
2017-09-23T21:05:23.743Z,960.60
2017-09-23T21:07:17.113Z,960.57
2017-09-23T21:08:17.121Z,960.58
2017-09-23T21:10:11.550Z,960.59
2017-09-23T21:11:11.545Z,960.56
2017-09-23T21:13:04.965Z,960.59
2017-09-23T21:14:04.976Z,960.56
2017-09-23T21:15:58.373Z,960.56
2017-09-23T21:16:58.384Z,960.56
2017-09-23T21:18:51.750Z,960.55
2017-09-23T21:19:51.781Z,960.56
2017-09-23T21:21:45.174Z,960.53
2017-09-23T21:22:45.177Z,960.51
2017-09-23T21:24:38.618Z,960.49
2017-09-23T21:25:38.587Z,960.51
2017-09-23T21:27:31.989Z,960.51
2017-09-23T21:28:32.000Z,960.51
2017-09-23T21:30:25.420Z,960.51
2017-09-23T21:31:25.437Z,960.53
2017-09-23T21:33:19.794Z,960.52
2017-09-23T21:34:19.813Z,960.53
2017-09-23T21:36:13.231Z,960.47
2017-09-23T21:37:13.224Z,960.50
2017-09-23T21:39:06.608Z,960.46
2017-09-23T21:40:06.609Z,960.46
2017-09-23T21:42:00.067Z,960.48
2017-09-23T21:43:00.015Z,960.45
2017-09-23T21:44:54.429Z,960.44
2017-09-23T21:45:54.436Z,960.43
2017-09-23T21:47:48.841Z,960.39
2017-09-23T21:48:48.845Z,960.37
2017-09-23T21:50:42.313Z,960.38
2017-09-23T21:51:42.226Z,960.38
2017-09-23T21:53:35.702Z,960.41
2017-09-23T21:54:35.652Z,960.43
2017-09-23T21:56:29.078Z,960.42
2017-09-23T21:57:29.050Z,960.42
2017-09-23T21:59:22.491Z,960.39
2017-09-23T22:00:22.513Z,960.39
2017-09-23T22:02:15.919Z,960.44
2017-09-23T22:03:15.887Z,960.41
2017-09-23T22:05:09.296Z,960.39
2017-09-23T22:06:09.309Z,960.40
2017-09-23T22:08:02.711Z,960.38
2017-09-23T22:09:02.723Z,960.35
2017-09-23T22:10:56.161Z,960.41
2017-09-23T22:11:56.119Z,960.43
2017-09-23T22:13:49.500Z,960.42
2017-09-23T22:14:49.565Z,960.43
2017-09-23T22:16:42.925Z,960.40
2017-09-23T22:17:42.942Z,960.43
2017-09-23T22:19:36.348Z,960.42
2017-09-23T22:20:36.323Z,960.45
2017-09-23T22:22:29.775Z,960.45
2017-09-23T22:23:29.764Z,960.44
2017-09-23T22:25:24.122Z,960.43
2017-09-23T22:26:24.153Z,960.42
2017-09-23T22:28:17.594Z,960.41
2017-09-23T22:29:17.577Z,960.47
2017-09-23T22:31:10.931Z,960.44
2017-09-23T22:32:10.973Z,960.48
2017-09-23T22:34:04.380Z,960.47
2017-09-23T22:35:04.380Z,960.49
2017-09-23T22:36:58.811Z,960.46
2017-09-23T22:37:58.784Z,960.43
2017-09-23T22:39:52.174Z,960.45
2017-09-23T22:40:52.187Z,960.44
2017-09-23T22:42:46.574Z,960.45
2017-09-23T22:43:46.607Z,960.43
2017-09-23T22:45:40.117Z,960.44
2017-09-23T22:46:40.008Z,960.43
2017-09-23T22:48:33.416Z,960.45
2017-09-23T22:49:33.437Z,960.43
2017-09-23T22:51:26.906Z,960.45
2017-09-23T22:52:26.888Z,960.44
2017-09-23T22:54:20.275Z,960.42
2017-09-23T22:55:20.266Z,960.42
2017-09-23T22:57:13.668Z,960.42
2017-09-23T22:58:13.669Z,960.41
2017-09-23T23:00:07.077Z,960.39
2017-09-23T23:01:07.089Z,960.42
2017-09-23T23:03:00.501Z,960.39
2017-09-23T23:04:00.505Z,960.39
2017-09-23T23:05:54.900Z,960.39
2017-09-23T23:06:54.893Z,960.35
2017-09-23T23:08:48.275Z,960.38
2017-09-23T23:09:48.292Z,960.36
2017-09-23T23:11:41.738Z,960.36
2017-09-23T23:12:41.752Z,960.36
2017-09-23T23:14:35.094Z,960.34
2017-09-23T23:15:35.117Z,960.36
2017-09-23T23:17:29.536Z,960.35
2017-09-23T23:18:29.504Z,960.34
2017-09-23T23:20:23.907Z,960.34
2017-09-23T23:21:23.873Z,960.31
2017-09-23T23:23:17.326Z,960.29
2017-09-23T23:24:17.328Z,960.29
2017-09-23T23:26:10.692Z,960.33
2017-09-23T23:27:10.724Z,960.36
2017-09-23T23:29:04.180Z,960.39
2017-09-23T23:30:04.140Z,960.35
2017-09-23T23:31:57.511Z,960.38
2017-09-23T23:32:57.521Z,960.40
2017-09-23T23:34:50.958Z,960.39
2017-09-23T23:35:50.986Z,960.40
2017-09-23T23:37:44.335Z,960.34
2017-09-23T23:38:44.386Z,960.35
2017-09-23T23:40:37.788Z,960.32
2017-09-23T23:41:37.765Z,960.32
2017-09-23T23:43:32.134Z,960.30
2017-09-23T23:44:32.147Z,960.32
2017-09-23T23:46:26.583Z,960.32
2017-09-23T23:47:26.570Z,960.32
2017-09-23T23:49:19.970Z,960.29
2017-09-23T23:50:19.982Z,960.28
2017-09-23T23:52:13.409Z,960.28
2017-09-23T23:53:13.381Z,960.29
2017-09-23T23:55:06.790Z,960.35
2017-09-23T23:56:06.760Z,960.34
2017-09-23T23:58:00.202Z,960.31
2017-09-23T23:59:00.189Z,960.34
